Impacts METAR Board
IDs:

KISM - Kissimmee Muni, FL, US

Updated at: 1000 UTC 28 Sep 2021
Potential Impact None Slight Moderate High
Time 27/22Z 27/23Z 28/00Z 28/01Z 28/02Z 28/03Z 28/04Z 28/05Z 28/06Z 28/07Z 28/08Z 28/09Z 28/10Z
Temp86 82 81 81 79
Dewpt66 66 66 66 66
Altim30.05 30.06 30.07 30.09 30.10
VIS10 10 10 10 10 10 10 10 10 10 10 10 10
CIG-- -- -- -- -- -- -- -- -- -- -- -- --
CoverSCTFEWSCTCLRCLRCLRCLRCLRCLRCLRCLRCLRCLR
FltCatVFRVFRVFRVFRVFRVFRVFRVFRVFRVFRVFRVFRVFR
WX--------------------------
WDir1001101001009000400000
WSpd12 10 7 5 4 0 0 3 0 0 0 0
WGst-- -- -- -- -- -- -- -- -- -- -- -- --
Raw hourly METARs
KISM 272156Z 10012KT 10SM SCT060 30/19 A3005 RMK AO2 SLPNO T03000190 PNO $
KISM 272256Z 11010KT 10SM FEW060 28/19 A3006 RMK AO2 SLPNO T02800190 PNO $
KISM 272356Z 10007KT 10SM FEW050 SCT060 27/19 A3007 RMK AO2 SLP182 6//// T02700190 53007 PNO $
KISM 280056Z 10005KT 10SM CLR 27/19 A3009 RMK AO2 SLP189 T02700190 PNO $
KISM 280156Z AUTO 09004KT 10SM CLR 26/19 A3010 RMK AO2 SLP192 T02600190 PNO $
KISM 280256Z AUTO 00000KT 10SM CLR RMK AO2 SLPNO 6//// FZRANO PNO $
KISM 280356Z AUTO 00000KT 10SM CLR RMK AO2 SLPNO FZRANO PNO $
KISM 280456Z AUTO 04003KT 10SM CLR RMK AO2 SLPNO FZRANO PNO $
KISM 280556Z AUTO 10SM CLR RMK AO2 SLPNO 6//// FZRANO PNO $
KISM 280656Z AUTO 00000KT 10SM CLR RMK AO2 SLPNO FZRANO PNO $
KISM 280756Z AUTO 00000KT 10SM CLR RMK AO2 SLPNO FZRANO PNO $
KISM 280856Z AUTO 00000KT 10SM CLR RMK AO2 SLPNO 6//// FZRANO PNO $
KISM 280956Z AUTO 00000KT 10SM CLR RMK AO2 SLPNO FZRANO PNO $



Page loaded:  10:33 UTC  |   03:33 AM Pacific  |   04:33 AM Mountain  |   05:33 AM Central  |   06:33 AM Eastern

 

ADVISORIES

FORECASTS

FORECASTS

OBSERVATIONS

USER TOOLS

ABOUT US